Time;durP1;ratioP1;P1;durP2;ratioP2;P2;SDS_P1;SDS_P2;PMS_P1;PMS_P2;Temp;Humidity;BMP_temperature;BMP_pressure;BME280_temperature;BME280_humidity;BME280_pressure;Samples;Min_cycle;Max_cycle;Signal;HPM_P1;HPM_P2
2021/12/30 00:01:38;;;;;;;52.60;31.25;;;-3.80;88.20;;;;;;6215386;23;20040;-66
2021/12/30 00:04:04;;;;;;;76.97;44.33;;;-3.80;88.30;;;;;;6215141;23;20005;-67
2021/12/30 00:06:37;;;;;;;76.32;44.10;;;-3.80;88.40;;;;;;6215390;23;20371;-66
2021/12/30 00:09:03;;;;;;;63.58;38.33;;;-3.90;88.40;;;;;;6214546;23;20001;-66
2021/12/30 00:11:29;;;;;;;48.88;31.25;;;-3.90;88.50;;;;;;6215193;23;20420;-66
2021/12/30 00:13:55;;;;;;;38.47;23.98;;;-3.90;88.50;;;;;;6214902;23;20051;-67
2021/12/30 00:16:20;;;;;;;41.78;25.42;;;-3.90;88.60;;;;;;6215159;23;20005;-67
2021/12/30 00:18:47;;;;;;;37.13;22.33;;;-3.90;88.50;;;;;;6214667;23;20706;-66
2021/12/30 00:21:13;;;;;;;35.17;24.15;;;-3.80;88.40;;;;;;6214674;23;20067;-66
2021/12/30 00:23:39;;;;;;;34.60;21.52;;;-3.80;88.40;;;;;;6214632;23;20020;-67
2021/12/30 00:26:04;;;;;;;34.90;23.48;;;-3.80;88.50;;;;;;6214572;23;20017;-65
2021/12/30 00:28:30;;;;;;;34.45;21.50;;;-3.80;88.60;;;;;;6214688;23;20036;-67
2021/12/30 00:30:56;;;;;;;38.80;25.25;;;-3.80;88.50;;;;;;6214703;23;20000;-66
2021/12/30 00:33:22;;;;;;;37.17;24.00;;;-3.80;88.40;;;;;;6214508;23;20001;-66
2021/12/30 00:35:49;;;;;;;39.58;24.23;;;-3.80;88.50;;;;;;6214612;23;20432;-65
2021/12/30 00:38:15;;;;;;;37.35;23.65;;;-3.80;88.40;;;;;;6214534;23;20001;-66
2021/12/30 00:40:41;;;;;;;37.92;23.35;;;-3.80;88.30;;;;;;6214762;23;20015;-66
2021/12/30 00:43:07;;;;;;;50.55;27.85;;;-3.80;88.40;;;;;;6214621;23;20028;-67
2021/12/30 00:45:35;;;;;;;45.33;27.27;;;-3.80;88.60;;;;;;6188071;23;20451;-67
2021/12/30 00:48:01;;;;;;;66.85;37.63;;;-3.80;88.50;;;;;;6214302;23;20005;-67
2021/12/30 00:50:27;;;;;;;67.93;37.05;;;-3.80;88.50;;;;;;6214530;23;20080;-67
2021/12/30 00:52:54;;;;;;;95.30;49.00;;;-3.80;88.60;;;;;;6214194;23;20021;-67
2021/12/30 00:55:20;;;;;;;67.65;36.00;;;-3.80;88.70;;;;;;6214530;23;20015;-66
2021/12/30 00:57:46;;;;;;;52.92;29.05;;;-3.80;88.50;;;;;;6187874;23;20086;-66
2021/12/30 01:00:17;;;;;;;41.40;22.98;;;-3.80;88.60;;;;;;6214632;23;20027;-67
2021/12/30 01:02:43;;;;;;;34.47;20.52;;;-3.80;88.60;;;;;;6214947;23;20325;-66
2021/12/30 01:05:09;;;;;;;34.55;19.75;;;-3.70;88.60;;;;;;6214637;23;19997;-66
2021/12/30 01:07:36;;;;;;;36.80;21.60;;;-3.70;88.50;;;;;;6187800;23;20067;-66
2021/12/30 01:10:03;;;;;;;36.92;21.83;;;-3.70;88.40;;;;;;6213995;23;20036;-66
2021/12/30 01:12:29;;;;;;;49.72;30.00;;;-3.70;88.40;;;;;;6214314;23;20004;-66
2021/12/30 01:14:54;;;;;;;53.60;30.73;;;-3.80;88.20;;;;;;6214195;23;20472;-67
2021/12/30 01:17:27;;;;;;;44.63;26.25;;;-3.70;88.40;;;;;;6214395;23;20008;-67
2021/12/30 01:19:53;;;;;;;39.47;23.00;;;-3.80;88.30;;;;;;6214154;23;20001;-66
2021/12/30 01:22:22;;;;;;;36.80;20.27;;;-3.80;88.30;;;;;;6214244;23;20001;-66
2021/12/30 01:24:48;;;;;;;38.17;23.40;;;-3.80;88.40;;;;;;6214097;23;20013;-66
2021/12/30 01:27:14;;;;;;;46.75;27.27;;;-3.80;88.40;;;;;;6214033;23;20012;-66
2021/12/30 01:29:40;;;;;;;37.33;23.33;;;-3.80;88.40;;;;;;6213947;23;20009;-66
2021/12/30 01:32:06;;;;;;;40.83;24.67;;;-3.80;88.30;;;;;;6214070;23;20079;-66
2021/12/30 01:34:33;;;;;;;36.17;21.65;;;-3.80;88.20;;;;;;6214213;23;20005;-67
2021/12/30 01:37:04;;;;;;;35.60;20.27;;;-3.80;88.40;;;;;;6214260;23;20008;-66
2021/12/30 01:39:32;;;;;;;30.67;19.00;;;-3.80;88.50;;;;;;6214120;23;20032;-66
2021/12/30 01:41:58;;;;;;;33.53;22.60;;;-3.80;88.60;;;;;;6213944;23;20014;-66
2021/12/30 01:44:28;;;;;;;34.47;22.33;;;-3.80;88.60;;;;;;6213698;23;20063;-67
2021/12/30 01:46:54;;;;;;;34.35;20.90;;;-3.80;88.50;;;;;;6213968;23;20001;-66
2021/12/30 01:49:21;;;;;;;33.33;19.95;;;-3.80;88.40;;;;;;6213682;23;20332;-67
2021/12/30 01:51:48;;;;;;;30.73;18.55;;;-3.80;88.30;;;;;;6213953;23;20546;-67
2021/12/30 01:54:14;;;;;;;29.05;17.15;;;-3.80;88.40;;;;;;6213807;23;20005;-67
2021/12/30 01:56:40;;;;;;;30.67;18.70;;;-3.80;88.70;;;;;;6213709;23;20004;-66
2021/12/30 01:59:06;;;;;;;31.27;17.98;;;-3.80;89.20;;;;;;6213652;23;20001;-67
2021/12/30 02:01:32;;;;;;;31.70;18.45;;;-3.80;88.60;;;;;;6213729;23;20079;-67
2021/12/30 02:03:58;;;;;;;31.45;17.80;;;-3.80;88.60;;;;;;6213501;23;20466;-67
2021/12/30 02:06:24;;;;;;;31.42;19.50;;;-3.70;88.60;;;;;;6213829;23;19997;-67
2021/12/30 02:08:51;;;;;;;33.42;20.88;;;-3.70;88.60;;;;;;6187101;23;20039;-66
2021/12/30 02:11:18;;;;;;;32.85;20.38;;;-3.70;88.60;;;;;;6213628;23;20328;-67
2021/12/30 02:13:46;;;;;;;32.85;21.13;;;-3.70;88.70;;;;;;6213840;23;20008;-68
2021/12/30 02:16:12;;;;;;;33.75;19.73;;;-3.70;88.70;;;;;;6214182;23;20421;-67
2021/12/30 02:18:37;;;;;;;27.55;17.45;;;-3.70;88.60;;;;;;6213493;23;20005;-66
2021/12/30 02:21:03;;;;;;;29.38;17.45;;;-3.70;88.60;;;;;;6213583;23;19996;-66
2021/12/30 02:23:32;;;;;;;28.77;17.15;;;-3.70;88.60;;;;;;6213776;23;19996;-67
2021/12/30 02:26:07;;;;;;;28.77;18.42;;;-3.70;88.60;;;;;;6213173;23;20016;-67
2021/12/30 02:28:36;;;;;;;30.58;19.00;;;-3.70;88.50;;;;;;6213485;23;20075;-67
2021/12/30 02:31:05;;;;;;;31.58;19.63;;;-3.60;88.60;;;;;;6186796;23;20008;-66
2021/12/30 02:33:31;;;;;;;30.52;18.80;;;-3.60;88.50;;;;;;6213585;23;20305;-66
2021/12/30 02:35:57;;;;;;;34.40;21.00;;;-3.60;88.40;;;;;;6213583;23;20012;-66
2021/12/30 02:38:24;;;;;;;34.28;20.55;;;-3.60;88.20;;;;;;6213342;23;20001;-66
2021/12/30 02:40:56;;;;;;;31.58;19.33;;;-3.70;88.20;;;;;;6213517;23;19996;-65
2021/12/30 02:43:25;;;;;;;31.05;19.33;;;-3.70;88.30;;;;;;6213612;23;20053;-66
2021/12/30 02:45:51;;;;;;;34.45;21.25;;;-3.70;88.40;;;;;;6213135;23;20001;-66
2021/12/30 02:48:21;;;;;;;32.95;20.15;;;-3.70;88.30;;;;;;6213219;23;20008;-66
2021/12/30 02:50:48;;;;;;;38.20;24.58;;;-3.70;88.40;;;;;;6213303;23;20357;-66
2021/12/30 02:53:14;;;;;;;42.10;27.00;;;-3.70;88.30;;;;;;6213219;23;20012;-66
2021/12/30 02:55:42;;;;;;;38.63;23.30;;;-3.70;88.40;;;;;;6213359;23;20328;-66
2021/12/30 02:58:08;;;;;;;34.25;22.00;;;-3.70;88.30;;;;;;6213185;23;20032;-67
2021/12/30 03:00:36;;;;;;;32.67;19.63;;;-3.70;88.40;;;;;;6213318;23;20007;-65
2021/12/30 03:03:02;;;;;;;32.58;20.30;;;-3.70;88.60;;;;;;6213403;23;20007;-66
2021/12/30 03:05:28;;;;;;;32.35;19.33;;;-3.70;88.50;;;;;;6213238;23;20108;-67
2021/12/30 03:07:54;;;;;;;29.48;18.17;;;-3.70;88.30;;;;;;6213395;23;20011;-66
2021/12/30 03:10:27;;;;;;;29.98;17.00;;;-3.70;88.30;;;;;;6213491;23;20007;-66
2021/12/30 03:12:57;;;;;;;30.40;18.00;;;-3.70;88.50;;;;;;6186824;23;20451;-67
2021/12/30 03:15:26;;;;;;;30.42;18.67;;;-3.70;88.50;;;;;;6213922;23;20081;-66
2021/12/30 03:17:52;;;;;;;28.38;17.23;;;-3.60;88.50;;;;;;6215129;23;20012;-66
2021/12/30 03:20:18;;;;;;;29.30;17.40;;;-3.60;88.50;;;;;;6215368;23;20008;-67
2021/12/30 03:22:44;;;;;;;34.38;19.48;;;-3.60;88.40;;;;;;6215564;23;20412;-67
2021/12/30 03:25:12;;;;;;;32.33;19.15;;;-3.60;88.20;;;;;;6215367;23;20357;-66
2021/12/30 03:27:38;;;;;;;32.55;19.52;;;-3.60;88.20;;;;;;6185199;23;20016;-66
2021/12/30 03:30:07;;;;;;;31.58;20.27;;;-3.60;88.20;;;;;;6185197;23;20043;-66
2021/12/30 03:32:33;;;;;;;32.63;20.08;;;-3.60;88.30;;;;;;6185007;23;20044;-66
2021/12/30 03:34:58;;;;;;;35.50;22.35;;;-3.60;88.10;;;;;;6184947;23;20012;-66
2021/12/30 03:37:24;;;;;;;36.95;22.40;;;-3.60;88.00;;;;;;6185219;23;20367;-66
2021/12/30 03:39:50;;;;;;;36.75;21.38;;;-3.60;88.00;;;;;;6184928;23;20012;-66
2021/12/30 03:42:16;;;;;;;32.80;19.55;;;-3.60;88.10;;;;;;6184604;23;20075;-67
2021/12/30 03:44:43;;;;;;;29.83;18.85;;;-3.60;88.20;;;;;;6185023;23;20008;-66
2021/12/30 03:47:13;;;;;;;30.77;19.90;;;-3.60;88.30;;;;;;6185043;23;20024;-66
2021/12/30 03:49:44;;;;;;;29.00;19.92;;;-3.60;88.30;;;;;;6185030;23;20001;-67
2021/12/30 03:52:23;;;;;;;31.20;19.92;;;-3.60;88.40;;;;;;6184966;23;20005;-66
2021/12/30 03:54:49;;;;;;;30.15;18.83;;;-3.60;88.40;;;;;;6184117;23;20076;-67
2021/12/30 03:57:14;;;;;;;29.80;18.52;;;-3.60;88.40;;;;;;6184888;23;20350;-67
2021/12/30 03:59:40;;;;;;;31.25;17.85;;;-3.60;88.20;;;;;;6183256;23;20409;-67
2021/12/30 04:02:06;;;;;;;29.35;17.00;;;-3.60;88.10;;;;;;6184685;23;20016;-67
2021/12/30 04:04:32;;;;;;;28.17;17.75;;;-3.60;88.10;;;;;;6184695;23;20038;-66
2021/12/30 04:06:58;;;;;;;32.13;18.63;;;-3.60;88.10;;;;;;6185584;23;20005;-67
2021/12/30 04:09:24;;;;;;;30.88;18.73;;;-3.60;88.20;;;;;;6184306;23;20324;-67
2021/12/30 04:11:50;;;;;;;31.13;19.27;;;-3.60;88.20;;;;;;6184728;23;20005;-66
2021/12/30 04:14:16;;;;;;;34.33;20.20;;;-3.60;88.30;;;;;;6184442;23;20005;-66
2021/12/30 04:16:42;;;;;;;60.50;35.08;;;-3.60;88.10;;;;;;6184528;23;20263;-67
2021/12/30 04:19:08;;;;;;;69.20;41.22;;;-3.60;88.00;;;;;;6184310;23;20009;-67
2021/12/30 04:21:33;;;;;;;78.07;48.78;;;-3.60;88.00;;;;;;6184461;23;20001;-67
2021/12/30 04:24:00;;;;;;;61.92;39.60;;;-3.60;88.00;;;;;;6184529;23;20008;-67
2021/12/30 04:26:26;;;;;;;48.45;29.85;;;-3.60;88.00;;;;;;6199324;23;20017;-67
2021/12/30 04:28:51;;;;;;;42.50;26.80;;;-3.60;88.00;;;;;;6214423;23;20005;-67
2021/12/30 04:31:17;;;;;;;37.25;23.20;;;-3.60;88.20;;;;;;6214393;23;20069;-66
2021/12/30 04:33:43;;;;;;;36.40;24.60;;;-3.60;88.20;;;;;;6214532;23;20009;-67
2021/12/30 04:36:09;;;;;;;37.22;26.17;;;-3.70;88.20;;;;;;6214206;23;20012;-67
2021/12/30 04:38:36;;;;;;;38.60;24.50;;;-3.60;88.30;;;;;;6214148;23;20004;-67
2021/12/30 04:41:04;;;;;;;37.90;25.15;;;-3.60;88.10;;;;;;6214513;23;19996;-66
2021/12/30 04:43:30;;;;;;;40.15;25.60;;;-3.60;88.20;;;;;;6214509;23;20443;-66
2021/12/30 04:45:58;;;;;;;36.33;22.55;;;-3.60;88.20;;;;;;6214478;23;20067;-66
2021/12/30 04:48:24;;;;;;;32.70;20.05;;;-3.60;88.20;;;;;;6187563;23;20486;-66
2021/12/30 04:50:50;;;;;;;35.05;20.08;;;-3.60;88.20;;;;;;6214217;23;20032;-66
2021/12/30 04:53:18;;;;;;;28.48;16.98;;;-3.60;88.20;;;;;;6214363;23;20015;-67
2021/12/30 04:55:44;;;;;;;28.48;16.73;;;-3.60;88.20;;;;;;6213996;23;20070;-67
2021/12/30 04:58:10;;;;;;;30.88;17.58;;;-3.60;88.20;;;;;;6213509;23;20416;-67
2021/12/30 05:00:37;;;;;;;28.60;17.65;;;-3.60;88.30;;;;;;6214141;23;20001;-67
2021/12/30 05:03:10;;;;;;;35.28;20.33;;;-3.60;88.20;;;;;;6214302;23;19996;-66
2021/12/30 05:05:45;;;;;;;33.90;21.50;;;-3.50;88.10;;;;;;6213973;23;20003;-67
2021/12/30 05:08:16;;;;;;;36.15;22.00;;;-3.50;88.10;;;;;;6214135;23;20031;-67
2021/12/30 05:10:42;;;;;;;36.88;21.92;;;-3.50;87.80;;;;;;6214281;23;20020;-67
2021/12/30 05:13:09;;;;;;;38.88;23.83;;;-3.50;87.80;;;;;;6187086;23;20025;-67
2021/12/30 05:15:36;;;;;;;38.35;22.95;;;-3.60;87.80;;;;;;6214087;23;20028;-67
2021/12/30 05:18:03;;;;;;;40.00;24.10;;;-3.60;87.80;;;;;;6214194;23;20044;-67
2021/12/30 05:20:29;;;;;;;35.88;22.35;;;-3.60;87.80;;;;;;6214209;23;20737;-67
2021/12/30 05:22:55;;;;;;;32.85;20.20;;;-3.60;87.60;;;;;;6213843;23;20035;-67
2021/12/30 05:25:21;;;;;;;34.22;20.55;;;-3.60;87.70;;;;;;6213665;23;19997;-67
2021/12/30 05:27:49;;;;;;;33.97;20.83;;;-3.60;88.00;;;;;;6187072;23;20016;-67
2021/12/30 05:30:15;;;;;;;36.78;21.65;;;-3.60;88.00;;;;;;6213851;23;20008;-67
2021/12/30 05:32:41;;;;;;;35.78;21.33;;;-3.70;88.00;;;;;;6213696;23;20364;-66
2021/12/30 05:35:09;;;;;;;38.30;22.23;;;-3.60;88.00;;;;;;6213693;23;20024;-66
2021/12/30 05:37:35;;;;;;;39.03;22.25;;;-3.70;87.90;;;;;;6213400;23;20009;-67
2021/12/30 05:40:06;;;;;;;38.33;21.35;;;-3.70;87.90;;;;;;6213639;23;20302;-68
2021/12/30 05:42:32;;;;;;;38.50;22.02;;;-3.70;88.00;;;;;;6213863;23;20082;-67
2021/12/30 05:45:08;;;;;;;36.85;21.35;;;-3.70;88.60;;;;;;6213523;23;20355;-66
2021/12/30 05:47:34;;;;;;;37.53;22.15;;;-3.70;88.00;;;;;;6213770;23;20016;-67
2021/12/30 05:50:05;;;;;;;40.03;23.52;;;-3.70;88.00;;;;;;6213691;23;20435;-67
2021/12/30 05:52:31;;;;;;;41.55;24.10;;;-3.70;88.00;;;;;;6213435;23;20001;-67
2021/12/30 05:54:57;;;;;;;43.38;24.60;;;-3.80;88.10;;;;;;6213537;23;20031;-68
2021/12/30 05:57:25;;;;;;;39.75;23.83;;;-3.80;88.10;;;;;;6213698;23;20329;-68
2021/12/30 05:59:51;;;;;;;40.65;24.38;;;-3.80;88.20;;;;;;6213523;23;20011;-68
2021/12/30 06:02:17;;;;;;;43.33;24.92;;;-3.80;88.20;;;;;;6213456;23;20079;-68
2021/12/30 06:04:43;;;;;;;49.55;27.88;;;-3.70;88.20;;;;;;6213402;23;20035;-68
2021/12/30 06:07:09;;;;;;;45.67;26.73;;;-3.70;88.20;;;;;;6213644;23;20432;-68
2021/12/30 06:09:36;;;;;;;44.90;27.67;;;-3.80;88.20;;;;;;6214218;23;20005;-68
2021/12/30 06:12:02;;;;;;;52.15;30.45;;;-3.70;88.30;;;;;;6213435;23;20070;-67
2021/12/30 06:14:30;;;;;;;52.22;31.63;;;-3.70;88.20;;;;;;6213597;23;20416;-67
2021/12/30 06:16:55;;;;;;;55.78;33.03;;;-3.70;88.20;;;;;;6213222;23;20004;-68
2021/12/30 06:19:21;;;;;;;52.42;32.35;;;-3.60;88.10;;;;;;6213422;23;20027;-67
2021/12/30 06:21:47;;;;;;;51.47;30.92;;;-3.60;87.80;;;;;;6213319;23;20012;-68
2021/12/30 06:24:13;;;;;;;47.58;28.45;;;-3.70;88.10;;;;;;6213343;23;20055;-68
2021/12/30 06:26:40;;;;;;;53.28;32.00;;;-3.70;88.00;;;;;;6213248;23;20015;-67
2021/12/30 06:29:06;;;;;;;53.60;31.50;;;-3.60;88.00;;;;;;6213395;23;20005;-67
2021/12/30 06:31:32;;;;;;;48.97;28.65;;;-3.60;88.00;;;;;;6212957;23;20004;-67
2021/12/30 06:33:58;;;;;;;54.13;30.02;;;-3.60;88.20;;;;;;6185966;23;20045;-67
2021/12/30 06:36:26;;;;;;;55.00;30.98;;;-3.60;88.30;;;;;;6213031;23;20011;-68
2021/12/30 06:38:52;;;;;;;55.72;30.52;;;-3.50;88.30;;;;;;6213064;23;20372;-68
2021/12/30 06:41:18;;;;;;;51.25;28.42;;;-3.50;88.20;;;;;;6213375;23;20000;-68
2021/12/30 06:43:44;;;;;;;53.85;28.70;;;-3.50;88.10;;;;;;6186387;23;20031;-67
2021/12/30 06:46:10;;;;;;;47.85;26.00;;;-3.40;88.00;;;;;;6186324;23;20001;-67
2021/12/30 06:48:37;;;;;;;41.53;23.90;;;-3.40;87.80;;;;;;6212702;23;20075;-67
2021/12/30 06:51:05;;;;;;;44.33;26.55;;;-3.30;87.60;;;;;;6214493;23;20051;-67
2021/12/30 06:53:33;;;;;;;41.22;25.52;;;-3.40;87.30;;;;;;6215631;23;20007;-67
2021/12/30 06:55:58;;;;;;;107.25;63.75;;;-3.30;87.30;;;;;;6188587;23;20459;-68
2021/12/30 06:58:24;;;;;;;78.45;48.70;;;-3.30;87.30;;;;;;6214324;23;20000;-67
2021/12/30 07:00:50;;;;;;;120.53;77.15;;;-3.30;87.40;;;;;;6214795;23;20000;-67
2021/12/30 07:03:17;;;;;;;80.07;49.95;;;-3.20;87.50;;;;;;6214949;23;19997;-67
2021/12/30 07:05:43;;;;;;;61.50;39.30;;;-3.20;87.30;;;;;;6215230;23;20009;-68
2021/12/30 07:08:09;;;;;;;60.25;40.13;;;-3.10;87.20;;;;;;6215021;23;20005;-67
2021/12/30 07:10:35;;;;;;;47.75;30.50;;;-3.10;87.10;;;;;;6215226;23;20079;-66
2021/12/30 07:13:00;;;;;;;50.45;29.17;;;-3.10;87.00;;;;;;6215206;23;20428;-67
2021/12/30 07:15:26;;;;;;;44.90;26.52;;;-3.00;86.20;;;;;;6215391;23;20004;-66
2021/12/30 07:17:52;;;;;;;42.42;25.13;;;-3.10;86.30;;;;;;6215015;23;20004;-68
2021/12/30 07:20:17;;;;;;;44.58;26.48;;;-3.00;86.10;;;;;;6215051;23;20030;-67
2021/12/30 07:22:43;;;;;;;45.75;26.38;;;-3.00;86.50;;;;;;6188414;23;20096;-68
2021/12/30 07:25:15;;;;;;;47.03;25.90;;;-3.00;86.70;;;;;;6214917;23;20324;-68
2021/12/30 07:27:41;;;;;;;44.03;26.05;;;-2.90;86.50;;;;;;6214430;23;20020;-68
2021/12/30 07:30:07;;;;;;;44.30;26.23;;;-2.80;86.30;;;;;;6214887;23;20066;-67
2021/12/30 07:32:33;;;;;;;43.90;26.55;;;-2.80;86.30;;;;;;6214882;23;20015;-67
2021/12/30 07:34:59;;;;;;;36.45;22.27;;;-2.70;85.80;;;;;;6214820;23;20067;-67
2021/12/30 07:37:25;;;;;;;36.40;21.88;;;-2.70;86.00;;;;;;6188021;23;20071;-68
2021/12/30 07:39:50;;;;;;;39.60;24.15;;;-2.60;86.10;;;;;;6214903;23;20005;-68
2021/12/30 07:42:16;;;;;;;40.05;24.08;;;-2.50;85.50;;;;;;6215002;23;20416;-68
2021/12/30 07:44:42;;;;;;;42.42;26.77;;;-2.50;85.10;;;;;;6214614;23;20001;-68
2021/12/30 07:47:08;;;;;;;46.03;31.42;;;-2.40;85.20;;;;;;6214910;23;20009;-68
2021/12/30 07:49:36;;;;;;;49.38;34.45;;;-2.40;85.30;;;;;;6214902;23;20008;-68
2021/12/30 07:52:03;;;;;;;45.80;32.92;;;-2.30;85.30;;;;;;6215146;23;20015;-68
2021/12/30 07:54:29;;;;;;;44.42;28.30;;;-2.30;85.30;;;;;;6215380;23;20004;-68
2021/12/30 07:56:55;;;;;;;40.42;26.52;;;-2.20;85.10;;;;;;6215250;23;20004;-66
2021/12/30 07:59:20;;;;;;;42.03;25.40;;;-2.10;85.20;;;;;;6214923;23;20005;-68
2021/12/30 08:01:46;;;;;;;40.15;23.88;;;-2.00;84.50;;;;;;6213219;23;20456;-68
2021/12/30 08:04:12;;;;;;;40.78;25.00;;;-1.90;85.30;;;;;;6214239;23;20001;-67
2021/12/30 08:06:37;;;;;;;40.97;24.83;;;-1.70;83.90;;;;;;6214516;23;20011;-67
2021/12/30 08:09:03;;;;;;;40.28;24.80;;;-1.60;83.70;;;;;;6214746;23;20379;-68
2021/12/30 08:11:29;;;;;;;40.40;24.48;;;-1.50;82.30;;;;;;6188377;23;20008;-67
2021/12/30 08:13:54;;;;;;;42.28;24.58;;;-1.40;82.10;;;;;;6214477;23;20027;-67
2021/12/30 08:16:20;;;;;;;38.03;21.08;;;-1.40;81.80;;;;;;6214502;23;20001;-68
2021/12/30 08:18:46;;;;;;;37.47;20.38;;;-1.30;82.30;;;;;;6214421;23;20004;-68
2021/12/30 08:21:11;;;;;;;33.83;18.67;;;-1.30;82.50;;;;;;6214397;23;20001;-67
2021/12/30 08:23:37;;;;;;;35.88;19.70;;;-1.30;82.60;;;;;;6214379;23;20008;-66
2021/12/30 08:26:04;;;;;;;34.38;18.77;;;-1.20;82.10;;;;;;6214098;23;20488;-67
2021/12/30 08:28:30;;;;;;;37.80;21.10;;;-1.20;82.30;;;;;;6214115;23;20315;-68
2021/12/30 08:30:56;;;;;;;38.70;21.30;;;-1.20;81.80;;;;;;6213554;23;19997;-67
2021/12/30 08:33:22;;;;;;;32.97;19.00;;;-1.20;81.40;;;;;;6214247;23;20012;-68
2021/12/30 08:35:48;;;;;;;30.35;17.45;;;-1.20;81.80;;;;;;6215126;23;20011;-67
2021/12/30 08:38:14;;;;;;;31.65;17.25;;;-1.20;82.20;;;;;;6214766;23;20004;-68
2021/12/30 08:40:40;;;;;;;30.15;16.70;;;-1.20;82.50;;;;;;6214387;23;20005;-68
2021/12/30 08:43:06;;;;;;;29.00;16.08;;;-1.10;82.80;;;;;;6214572;23;20302;-68
2021/12/30 08:45:33;;;;;;;34.65;18.73;;;-1.00;82.80;;;;;;6214169;23;20000;-66
2021/12/30 08:47:59;;;;;;;33.58;18.60;;;-0.90;81.50;;;;;;6214341;23;20420;-66
2021/12/30 08:50:25;;;;;;;33.90;18.40;;;-0.90;81.20;;;;;;6214636;23;20005;-68
2021/12/30 08:52:51;;;;;;;31.67;18.10;;;-0.90;81.50;;;;;;6187788;23;20417;-67
2021/12/30 08:55:19;;;;;;;31.92;18.17;;;-0.90;81.50;;;;;;6213230;23;20353;-72
2021/12/30 08:57:47;;;;;;;30.27;17.42;;;-0.80;81.40;;;;;;6213289;23;20032;-68
2021/12/30 09:00:25;;;;;;;35.75;19.48;;;-0.80;81.70;;;;;;6213790;23;20079;-71
2021/12/30 09:02:55;;;;;;;35.20;19.88;;;-0.80;81.30;;;;;;6213909;23;20329;-70
2021/12/30 09:05:21;;;;;;;40.08;21.75;;;-0.80;81.10;;;;;;6214364;23;20007;-70
2021/12/30 09:07:47;;;;;;;39.75;22.23;;;-0.70;81.00;;;;;;6213871;23;20329;-71
2021/12/30 09:10:15;;;;;;;37.10;22.05;;;-0.70;80.80;;;;;;6214266;23;20006;-71
2021/12/30 09:12:43;;;;;;;37.47;22.75;;;-0.70;80.30;;;;;;6214019;23;20075;-71
2021/12/30 09:15:12;;;;;;;37.08;20.48;;;-0.80;80.30;;;;;;6213973;23;20011;-70
2021/12/30 09:17:39;;;;;;;34.35;18.58;;;-0.80;80.40;;;;;;6214097;23;20359;-71
2021/12/30 09:20:06;;;;;;;34.10;19.63;;;-0.80;80.90;;;;;;6213897;23;20031;-70
2021/12/30 09:22:33;;;;;;;33.58;19.27;;;-0.70;80.50;;;;;;6213873;23;19997;-71
2021/12/30 09:24:59;;;;;;;36.13;21.90;;;-0.70;80.00;;;;;;6213784;23;20004;-71
2021/12/30 09:27:25;;;;;;;41.88;25.45;;;-0.70;80.20;;;;;;6213122;23;20084;-71
2021/12/30 09:29:50;;;;;;;42.10;24.02;;;-0.70;80.50;;;;;;6213904;23;20005;-71
2021/12/30 09:32:16;;;;;;;37.28;21.73;;;-0.70;80.20;;;;;;6214035;23;20032;-70
2021/12/30 09:34:41;;;;;;;34.20;18.67;;;-0.70;80.00;;;;;;6213931;23;20008;-70
2021/12/30 09:37:09;;;;;;;32.50;18.15;;;-0.70;80.00;;;;;;6213862;23;20015;-71
2021/12/30 09:39:37;;;;;;;32.67;19.00;;;-0.70;80.20;;;;;;6187196;23;20548;-69
2021/12/30 09:42:03;;;;;;;31.95;18.42;;;-0.70;79.80;;;;;;6213915;23;19997;-70
2021/12/30 09:44:29;;;;;;;29.80;17.40;;;-0.70;79.70;;;;;;6213240;23;20004;-71
2021/12/30 09:46:55;;;;;;;31.17;16.83;;;-0.70;80.10;;;;;;6213891;23;20352;-70
2021/12/30 09:49:23;;;;;;;31.55;17.27;;;-0.70;80.40;;;;;;6214017;23;20005;-70
2021/12/30 09:51:50;;;;;;;30.60;16.90;;;-0.60;80.40;;;;;;6213889;23;20327;-71
2021/12/30 09:54:16;;;;;;;28.42;15.55;;;-0.60;80.00;;;;;;6213973;23;20008;-71
2021/12/30 09:56:43;;;;;;;28.73;16.73;;;-0.60;80.00;;;;;;6213921;23;20008;-71
2021/12/30 09:59:10;;;;;;;30.23;17.15;;;-0.60;79.80;;;;;;6213683;23;20075;-71
2021/12/30 10:01:37;;;;;;;28.10;15.63;;;-0.60;79.70;;;;;;6186396;23;20506;-70
2021/12/30 10:04:05;;;;;;;27.35;16.15;;;-0.60;80.00;;;;;;6187001;23;20332;-70
2021/12/30 10:06:31;;;;;;;29.02;16.50;;;-0.50;80.10;;;;;;6213342;23;20360;-70
2021/12/30 10:09:01;;;;;;;29.77;16.75;;;-0.50;80.00;;;;;;6213573;23;20026;-71
2021/12/30 10:11:27;;;;;;;29.35;16.25;;;-0.50;80.00;;;;;;6213629;23;20009;-70
2021/12/30 10:13:56;;;;;;;28.70;16.60;;;-0.50;79.90;;;;;;6213733;23;20069;-72
2021/12/30 10:16:22;;;;;;;29.83;17.08;;;-0.50;79.70;;;;;;6213493;23;20381;-70
2021/12/30 10:18:55;;;;;;;31.08;17.70;;;-0.50;79.50;;;;;;6213246;23;20401;-70
2021/12/30 10:21:20;;;;;;;32.72;18.40;;;-0.50;79.40;;;;;;6213439;23;20435;-71
2021/12/30 10:23:49;;;;;;;33.05;18.38;;;-0.50;78.80;;;;;;6213349;23;20074;-69
2021/12/30 10:26:16;;;;;;;31.27;17.95;;;-0.50;79.10;;;;;;6213212;23;20087;-70
2021/12/30 10:28:44;;;;;;;34.35;19.55;;;-0.60;79.10;;;;;;6213417;23;20005;-70
2021/12/30 10:31:12;;;;;;;33.13;20.33;;;-0.60;78.70;;;;;;6213578;23;20429;-71
2021/12/30 10:33:54;;;;;;;34.33;19.70;;;-0.60;79.20;;;;;;6213498;23;20036;-71
2021/12/30 10:36:39;;;;;;;29.73;18.50;;;-0.50;79.30;;;;;;6213497;23;20080;-70
2021/12/30 10:39:20;;;;;;;34.03;17.92;;;-0.50;79.50;;;;;;6213230;23;20008;-70
2021/12/30 10:41:48;;;;;;;37.80;20.42;;;-0.50;79.10;;;;;;6213238;23;20000;-71
2021/12/30 10:44:15;;;;;;;38.40;20.88;;;-0.50;78.40;;;;;;6187446;23;20009;-71
2021/12/30 10:46:41;;;;;;;36.15;20.73;;;-0.50;78.40;;;;;;6213218;23;20048;-70
2021/12/30 10:49:22;;;;;;;42.70;23.63;;;-0.50;78.20;;;;;;6213270;23;20371;-70
2021/12/30 10:51:50;;;;;;;40.72;22.73;;;-0.50;77.40;;;;;;6213000;23;20009;-71
2021/12/30 10:54:27;;;;;;;40.78;22.67;;;-0.60;77.60;;;;;;6213054;23;20005;-70
2021/12/30 10:57:02;;;;;;;37.55;21.95;;;-0.60;78.30;;;;;;6213032;23;20012;-70
2021/12/30 10:59:28;;;;;;;40.55;23.38;;;-0.60;77.50;;;;;;6213200;23;20420;-70
2021/12/30 11:01:57;;;;;;;46.95;24.83;;;-0.50;76.60;;;;;;6213194;23;20001;-70
2021/12/30 11:04:34;;;;;;;41.28;22.40;;;-0.50;76.30;;;;;;6213106;23;20482;-70
2021/12/30 11:07:02;;;;;;;43.35;22.75;;;-0.60;77.20;;;;;;6213358;23;20624;-70
2021/12/30 11:09:28;;;;;;;45.95;23.85;;;-0.50;76.90;;;;;;6213042;23;20076;-70
2021/12/30 11:11:59;;;;;;;41.40;22.10;;;-0.40;76.50;;;;;;6213358;23;20043;-70
2021/12/30 11:14:29;;;;;;;38.08;21.00;;;-0.50;76.10;;;;;;6213178;23;20417;-70
2021/12/30 11:17:17;;;;;;;40.90;22.38;;;-0.50;76.50;;;;;;6213126;23;20008;-70
2021/12/30 11:19:55;;;;;;;37.47;20.63;;;-0.50;76.00;;;;;;6212999;23;20008;-69
2021/12/30 11:22:27;;;;;;;37.03;20.80;;;-0.50;75.60;;;;;;6213054;23;20302;-70
2021/12/30 11:24:55;;;;;;;38.20;20.52;;;-0.50;75.70;;;;;;6213197;23;20312;-71
2021/12/30 11:27:22;;;;;;;38.25;21.83;;;-0.50;75.60;;;;;;6212874;23;20017;-70
2021/12/30 11:29:51;;;;;;;41.30;21.88;;;-0.60;75.40;;;;;;6212774;23;20005;-71
2021/12/30 11:32:20;;;;;;;47.35;26.23;;;-0.60;75.80;;;;;;6186592;23;20031;-70
2021/12/30 11:34:47;;;;;;;49.35;26.75;;;-0.70;75.80;;;;;;6212909;23;20004;-69
2021/12/30 11:37:14;;;;;;;46.53;25.60;;;-0.70;75.70;;;;;;6214634;23;20371;-70
2021/12/30 11:39:43;;;;;;;50.03;25.92;;;-0.70;75.20;;;;;;6215221;23;20440;-70
2021/12/30 11:42:19;;;;;;;45.45;24.38;;;-0.80;76.00;;;;;;6214889;23;20001;-71
2021/12/30 11:44:56;;;;;;;39.30;21.48;;;-0.80;76.80;;;;;;6215217;23;20004;-71
2021/12/30 11:47:36;;;;;;;42.15;23.55;;;-0.70;77.00;;;;;;6215070;23;20413;-70
2021/12/30 11:50:12;;;;;;;37.03;21.60;;;-0.70;76.20;;;;;;6214464;23;20099;-70
2021/12/30 11:52:48;;;;;;;39.50;21.42;;;-0.70;76.30;;;;;;6215000;23;20012;-71
2021/12/30 11:55:41;;;;;;;44.85;24.42;;;-0.70;76.30;;;;;;6214766;23;20005;-70
2021/12/30 11:58:29;;;;;;;43.47;24.08;;;-0.80;75.90;;;;;;6215023;23;20004;-70
2021/12/30 12:01:02;;;;;;;38.47;21.08;;;-0.80;76.30;;;;;;6214920;23;20092;-70
2021/12/30 12:03:38;;;;;;;44.00;24.90;;;-0.90;76.30;;;;;;6214717;23;20003;-70
2021/12/30 12:06:24;;;;;;;52.97;28.45;;;-0.90;76.10;;;;;;6214655;23;20062;-70
2021/12/30 12:08:54;;;;;;;45.28;26.00;;;-0.80;75.80;;;;;;6214737;23;20024;-70
2021/12/30 12:11:25;;;;;;;46.60;24.27;;;-1.00;76.20;;;;;;6214451;23;20028;-70
2021/12/30 12:13:56;;;;;;;46.88;25.08;;;-1.00;76.70;;;;;;6215123;23;20111;-70
2021/12/30 12:16:42;;;;;;;46.88;25.67;;;-1.00;76.20;;;;;;6214392;23;20000;-71
2021/12/30 12:19:09;;;;;;;41.65;23.38;;;-1.10;76.10;;;;;;6214677;23;20079;-72
2021/12/30 12:21:49;;;;;;;46.38;25.45;;;-1.10;76.70;;;;;;6214876;23;19996;-70
2021/12/30 12:24:20;;;;;;;44.88;25.15;;;-1.10;76.30;;;;;;6214714;23;19997;-70
2021/12/30 12:26:47;;;;;;;46.22;24.70;;;-1.10;76.20;;;;;;6214932;23;20008;-70
2021/12/30 12:29:42;;;;;;;43.42;24.70;;;-1.20;76.70;;;;;;6214677;23;20013;-70